Time;durP1;ratioP1;P1;durP2;ratioP2;P2;SDS_P1;SDS_P2;PMS_P1;PMS_P2;Temp;Humidity;BMP_temperature;BMP_pressure;BME280_temperature;BME280_humidity;BME280_pressure;Samples;Min_cycle;Max_cycle;Signal;HPM_P1;HPM_P2
2022/12/01 00:00:42;;;;;;;68.72;30.50;;;6.20;99.90;;;;;;6301264;22;20080;-88
2022/12/01 00:03:08;;;;;;;74.57;31.58;;;6.20;99.90;;;;;;6272451;22;20556;-88
2022/12/01 00:05:34;;;;;;;74.28;32.08;;;6.60;99.90;;;;;;6272377;22;20434;-88
2022/12/01 00:08:00;;;;;;;67.50;30.15;;;6.20;99.90;;;;;;6246435;22;20023;-89
2022/12/01 00:10:27;;;;;;;72.40;33.38;;;6.50;99.90;;;;;;6272133;22;20026;-88
2022/12/01 00:12:54;;;;;;;63.50;28.85;;;6.20;99.90;;;;;;6249355;22;20012;-87
2022/12/01 00:15:20;;;;;;;69.90;30.33;;;6.10;99.90;;;;;;6275109;22;20046;-88
2022/12/01 00:17:47;;;;;;;70.72;30.58;;;6.10;99.90;;;;;;6303336;22;20022;-88
2022/12/01 00:20:15;;;;;;;72.10;31.77;;;6.10;99.90;;;;;;6276141;22;20015;-88
2022/12/01 00:22:42;;;;;;;67.93;30.40;;;6.20;99.90;;;;;;6274681;22;20693;-88
2022/12/01 00:25:08;;;;;;;75.60;33.50;;;6.20;99.90;;;;;;6275156;22;20011;-88
2022/12/01 00:27:34;;;;;;;70.15;32.45;;;6.10;99.90;;;;;;6276039;22;20326;-88
2022/12/01 00:29:59;;;;;;;71.70;31.70;;;6.20;99.90;;;;;;6276151;22;20022;-88
2022/12/01 00:32:25;;;;;;;83.07;33.47;;;6.10;99.90;;;;;;6275625;22;20015;-88
2022/12/01 00:34:54;;;;;;;69.68;32.40;;;6.10;99.90;;;;;;6304305;22;20046;-88
2022/12/01 00:37:19;;;;;;;72.97;32.75;;;6.10;99.90;;;;;;6274732;22;20011;-88
2022/12/01 00:39:45;;;;;;;78.97;32.90;;;6.10;99.90;;;;;;6276284;22;20281;-87
2022/12/01 00:42:11;;;;;;;67.28;31.67;;;6.10;99.90;;;;;;6276524;22;20023;-88
2022/12/01 00:44:37;;;;;;;78.22;32.75;;;6.90;99.90;;;;;;6250959;22;20015;-87
2022/12/01 00:47:02;;;;;;;72.57;31.20;;;6.60;99.90;;;;;;6250993;22;20090;-87
2022/12/01 00:49:28;;;;;;;76.25;32.22;;;6.10;99.90;;;;;;6303737;22;20409;-88
2022/12/01 00:51:54;;;;;;;69.38;32.97;;;6.10;99.90;;;;;;6250399;22;20086;-88
2022/12/01 00:54:20;;;;;;;71.72;34.30;;;6.10;99.90;;;;;;6276381;22;20553;-88
2022/12/01 00:56:46;;;;;;;80.25;33.85;;;6.10;99.90;;;;;;6276405;22;20517;-87
2022/12/01 00:59:12;;;;;;;81.93;34.63;;;6.20;99.90;;;;;;6250396;22;20015;-88
2022/12/01 01:01:38;;;;;;;75.03;34.75;;;6.10;99.90;;;;;;6276683;22;20012;-88
2022/12/01 01:04:04;;;;;;;75.22;32.00;;;6.10;99.90;;;;;;6304335;22;20011;-88
2022/12/01 01:06:30;;;;;;;83.75;33.80;;;6.10;99.90;;;;;;6274711;22;20449;-88
2022/12/01 01:08:55;;;;;;;75.38;32.15;;;6.10;99.90;;;;;;6303380;22;20235;-88
2022/12/01 01:11:21;;;;;;;77.28;32.30;;;6.10;99.90;;;;;;6275380;22;20399;-87
2022/12/01 01:13:47;;;;;;;66.85;29.15;;;6.10;99.90;;;;;;6303380;22;20023;-87
2022/12/01 01:16:19;;;;;;;70.53;32.30;;;6.10;99.90;;;;;;6303684;22;20007;-88
2022/12/01 01:18:45;;;;;;;68.68;32.38;;;6.10;99.90;;;;;;6276099;22;20007;-89
2022/12/01 01:21:14;;;;;;;77.82;34.25;;;6.50;99.90;;;;;;6301971;22;20023;-88
2022/12/01 01:23:40;;;;;;;73.38;33.13;;;6.10;99.90;;;;;;6249843;22;20258;-88
2022/12/01 01:26:10;;;;;;;77.18;33.65;;;6.10;99.90;;;;;;6275400;22;20544;-88
2022/12/01 01:28:36;;;;;;;73.85;33.17;;;6.10;99.90;;;;;;6276252;22;20042;-89
2022/12/01 01:31:06;;;;;;;81.20;33.45;;;6.10;99.90;;;;;;6303458;22;20015;-88
2022/12/01 01:33:32;;;;;;;71.53;32.83;;;6.10;99.90;;;;;;6275886;22;20090;-88
2022/12/01 01:35:58;;;;;;;78.80;32.42;;;6.10;99.90;;;;;;6273429;22;20389;-88
2022/12/01 01:38:26;;;;;;;77.28;33.20;;;6.10;99.90;;;;;;6302983;22;20022;-88
2022/12/01 01:40:51;;;;;;;80.15;33.70;;;6.10;99.90;;;;;;6250259;22;20102;-88
2022/12/01 01:43:54;;;;;;;66.05;29.70;;;6.10;99.90;;;;;;6275955;22;20052;-87
2022/12/01 01:46:31;;;;;;;71.05;32.35;;;6.10;99.90;;;;;;6250113;22;20023;-88
2022/12/01 01:49:06;;;;;;;77.55;34.03;;;6.00;99.90;;;;;;6275286;22;20015;-88
2022/12/01 01:51:45;;;;;;;83.45;34.72;;;6.10;99.90;;;;;;6302792;22;20019;-86
2022/12/01 01:54:30;;;;;;;76.57;33.67;;;6.10;99.90;;;;;;6275361;22;20057;-88
2022/12/01 01:56:58;;;;;;;74.97;33.13;;;6.00;99.90;;;;;;6275620;22;20346;-87
2022/12/01 01:59:30;;;;;;;74.30;33.90;;;6.00;99.90;;;;;;6302465;22;20456;-86
2022/12/01 02:02:07;;;;;;;73.68;32.78;;;6.00;99.90;;;;;;6303654;22;20058;-88
2022/12/01 02:04:48;;;;;;;69.53;30.10;;;6.00;99.90;;;;;;6249537;22;20022;-88
2022/12/01 02:07:17;;;;;;;83.00;33.25;;;6.20;99.90;;;;;;6275362;22;20018;-88
2022/12/01 02:09:43;;;;;;;71.43;32.35;;;6.00;99.90;;;;;;6274564;22;20022;-88
2022/12/01 02:12:32;;;;;;;78.32;34.03;;;6.00;99.90;;;;;;6274417;22;20038;-87
2022/12/01 02:15:26;;;;;;;78.70;33.85;;;6.00;99.90;;;;;;6302716;22;20325;-88
2022/12/01 02:18:41;;;;;;;70.95;32.80;;;6.00;99.90;;;;;;6302982;22;20026;-87
2022/12/01 02:21:23;;;;;;;74.32;32.42;;;6.00;99.90;;;;;;6253799;22;20061;-88
2022/12/01 02:24:22;;;;;;;74.75;34.03;;;6.00;99.90;;;;;;6251388;22;20051;-87
2022/12/01 02:26:47;;;;;;;78.65;32.90;;;6.00;99.90;;;;;;6277232;22;20023;-88
2022/12/01 02:29:19;;;;;;;80.10;33.97;;;6.00;99.90;;;;;;6304983;22;20726;-88
2022/12/01 02:32:09;;;;;;;76.90;33.17;;;6.00;99.90;;;;;;6304503;22;20301;-88
2022/12/01 02:34:44;;;;;;;78.78;34.28;;;6.00;99.90;;;;;;6274921;22;20015;-88
2022/12/01 02:37:14;;;;;;;;;;;6.00;99.90;;;;;;6277525;22;20454;-88
2022/12/01 02:39:51;;;;;;;89.85;35.55;;;6.00;99.90;;;;;;6250776;22;19918;-87
2022/12/01 02:45:12;;;;;;;87.00;35.90;;;6.00;99.90;;;;;;6304334;22;20019;-87
2022/12/01 02:47:40;;;;;;;78.63;34.88;;;6.00;99.90;;;;;;6276257;22;20019;-88
2022/12/01 02:50:09;;;;;;;87.63;36.65;;;6.00;99.90;;;;;;6276325;22;20015;-88
2022/12/01 02:52:35;;;;;;;83.43;35.70;;;6.00;99.90;;;;;;6303977;22;20007;-88
2022/12/01 02:55:01;;;;;;;80.32;34.90;;;6.00;99.90;;;;;;6276263;22;20502;-88
2022/12/01 02:57:28;;;;;;;83.75;35.55;;;6.00;99.90;;;;;;6251280;22;20434;-88
2022/12/01 02:59:54;;;;;;;77.10;34.85;;;6.00;99.90;;;;;;6276103;22;20035;-88
2022/12/01 03:02:41;;;;;;;82.57;36.13;;;5.90;99.90;;;;;;6276142;22;20072;-87
2022/12/01 03:05:41;;;;;;;77.85;32.33;;;5.90;99.90;;;;;;6276674;22;20038;-87
2022/12/01 03:08:34;;;;;;;79.53;35.33;;;6.00;99.90;;;;;;6287066;22;20350;-88
2022/12/01 03:11:01;;;;;;;91.75;36.70;;;5.90;99.90;;;;;;6275372;22;20086;-87
2022/12/01 03:13:51;;;;;;;89.70;36.55;;;6.00;99.90;;;;;;6302271;22;20018;-88
2022/12/01 03:16:29;;;;;;;81.80;36.15;;;5.90;99.90;;;;;;6302783;22;20086;-86
2022/12/01 03:19:18;;;;;;;83.95;35.50;;;6.00;99.90;;;;;;6303955;22;20042;-88
2022/12/01 03:21:56;;;;;;;88.28;35.45;;;6.00;99.90;;;;;;6261824;22;20012;-88
2022/12/01 03:24:26;;;;;;;90.15;37.28;;;6.00;99.90;;;;;;6276049;22;20012;-88
2022/12/01 03:26:56;;;;;;;86.80;35.42;;;6.00;99.90;;;;;;6276233;22;20047;-87
2022/12/01 03:29:50;;;;;;;88.47;36.25;;;5.90;99.90;;;;;;6250423;22;20038;-88
2022/12/01 03:32:34;;;;;;;87.70;35.22;;;6.00;99.90;;;;;;6272718;22;20015;-88
2022/12/01 03:35:13;;;;;;;87.35;36.53;;;6.00;99.90;;;;;;6304053;22;20077;-88
2022/12/01 03:37:46;;;;;;;95.35;36.65;;;6.00;99.90;;;;;;6303704;22;20012;-88
2022/12/01 03:40:17;;;;;;;89.57;35.85;;;6.00;99.90;;;;;;6302932;22;20019;-88
2022/12/01 03:42:54;;;;;;;90.85;36.42;;;6.00;99.90;;;;;;6250294;22;20076;-87
2022/12/01 03:45:40;;;;;;;93.80;36.50;;;6.00;99.90;;;;;;6249887;22;20011;-88
2022/12/01 03:48:06;;;;;;;87.90;36.53;;;6.10;99.90;;;;;;6279518;22;20011;-88
2022/12/01 03:50:54;;;;;;;94.15;37.00;;;6.00;99.90;;;;;;6275886;22;20019;-88
2022/12/01 03:53:26;;;;;;;93.20;36.38;;;6.00;99.90;;;;;;6276203;22;20015;-87
2022/12/01 03:56:01;;;;;;;95.03;35.22;;;6.00;99.90;;;;;;6249303;22;20477;-87
2022/12/01 03:58:41;;;;;;;86.97;35.60;;;6.00;99.90;;;;;;6274587;22;20015;-88
2022/12/01 04:01:07;;;;;;;86.78;35.92;;;6.00;99.90;;;;;;6302244;22;20015;-87
2022/12/01 04:03:33;;;;;;;92.25;37.85;;;5.90;99.90;;;;;;6275572;22;20027;-87
2022/12/01 04:05:59;;;;;;;87.95;35.55;;;6.20;99.90;;;;;;6302713;22;20057;-88
2022/12/01 04:08:25;;;;;;;85.32;36.42;;;5.90;99.90;;;;;;6249090;22;20022;-88
2022/12/01 04:10:51;;;;;;;91.13;36.50;;;5.90;99.90;;;;;;6274916;22;20019;-88
2022/12/01 04:13:24;;;;;;;93.10;37.78;;;5.90;99.90;;;;;;6275086;22;20098;-87
2022/12/01 04:15:53;;;;;;;93.32;37.40;;;6.00;99.90;;;;;;6302391;22;20567;-87
2022/12/01 04:18:21;;;;;;;90.38;37.08;;;5.90;99.90;;;;;;6250112;22;20019;-87
2022/12/01 04:20:50;;;;;;;94.40;36.85;;;5.90;99.90;;;;;;6276182;22;20022;-87
2022/12/01 04:26:04;;;;;;;101.53;40.53;;;5.90;99.90;;;;;;6270728;22;20020;-87
2022/12/01 04:28:30;;;;;;;97.35;38.63;;;5.90;99.90;;;;;;6272375;22;20015;-87
2022/12/01 04:30:56;;;;;;;92.78;36.65;;;5.90;99.90;;;;;;6269055;22;20019;-87
2022/12/01 04:33:22;;;;;;;94.80;37.35;;;5.90;99.90;;;;;;6244902;22;20031;-87
2022/12/01 04:35:58;;;;;;;91.47;39.30;;;5.90;99.90;;;;;;6269787;22;20026;-87
2022/12/01 04:38:24;;;;;;;91.63;38.88;;;5.90;99.90;;;;;;6243942;22;20061;-87
2022/12/01 04:40:50;;;;;;;90.97;37.40;;;5.90;99.90;;;;;;6269859;22;20019;-87
2022/12/01 04:43:16;;;;;;;99.78;39.50;;;5.90;99.90;;;;;;6269386;22;20029;-88
2022/12/01 04:45:42;;;;;;;91.25;36.67;;;5.70;99.90;;;;;;6270617;22;20449;-88
2022/12/01 04:48:08;;;;;;;92.07;38.00;;;5.90;99.90;;;;;;6271782;22;20008;-88
2022/12/01 04:50:34;;;;;;;92.60;38.63;;;5.90;99.90;;;;;;6272199;22;20086;-86
2022/12/01 04:52:59;;;;;;;88.05;37.38;;;5.90;99.90;;;;;;6269395;22;20136;-87
2022/12/01 04:55:25;;;;;;;90.55;38.25;;;5.90;99.90;;;;;;6271701;22;20022;-87
2022/12/01 04:57:51;;;;;;;91.68;37.40;;;5.90;99.90;;;;;;6269388;22;20022;-87
2022/12/01 05:00:20;;;;;;;91.97;38.25;;;5.90;99.90;;;;;;6272279;22;20014;-87
2022/12/01 05:02:46;;;;;;;102.30;39.47;;;5.90;99.90;;;;;;6271231;22;20023;-87
2022/12/01 05:05:13;;;;;;;91.93;35.28;;;5.90;99.90;;;;;;6268767;22;20477;-87
2022/12/01 05:07:39;;;;;;;88.55;38.78;;;5.90;99.90;;;;;;6271924;22;20015;-87
2022/12/01 05:10:06;;;;;;;100.38;37.50;;;5.90;99.90;;;;;;6269946;22;20509;-86
2022/12/01 05:12:32;;;;;;;99.38;39.13;;;5.80;99.90;;;;;;6269319;22;20164;-87
2022/12/01 05:14:58;;;;;;;95.53;39.20;;;5.70;99.90;;;;;;6272011;22;20365;-87
2022/12/01 05:17:23;;;;;;;94.07;37.25;;;5.90;99.90;;;;;;6271958;22;20030;-87
2022/12/01 05:22:44;;;;;;;102.97;37.17;;;6.30;99.90;;;;;;6242050;22;20454;-87
2022/12/01 05:25:09;;;;;;;93.97;36.67;;;5.90;99.90;;;;;;6268242;22;20023;-87
2022/12/01 05:27:35;;;;;;;99.25;37.83;;;5.90;99.90;;;;;;6242011;22;20023;-87
2022/12/01 05:30:01;;;;;;;91.82;36.35;;;5.90;99.90;;;;;;6242432;22;20131;-87
2022/12/01 05:32:27;;;;;;;86.18;38.33;;;5.90;99.90;;;;;;6268521;22;20019;-88
2022/12/01 05:34:53;;;;;;;94.85;36.25;;;5.90;99.90;;;;;;6268380;22;20016;-87
2022/12/01 05:37:18;;;;;;;90.55;38.15;;;5.90;99.90;;;;;;6243102;22;20012;-87
2022/12/01 05:39:44;;;;;;;98.78;36.28;;;5.90;99.90;;;;;;6267984;22;20082;-87
2022/12/01 05:42:10;;;;;;;91.95;36.90;;;5.90;99.90;;;;;;6242486;22;20026;-87
2022/12/01 05:44:36;;;;;;;91.82;37.20;;;5.90;99.90;;;;;;6242625;22;20104;-87
2022/12/01 05:47:01;;;;;;;91.05;36.50;;;5.90;99.90;;;;;;6268453;22;20020;-87
2022/12/01 05:49:27;;;;;;;89.10;35.75;;;5.90;99.90;;;;;;6269020;22;20015;-87
2022/12/01 05:51:53;;;;;;;88.93;36.28;;;5.90;99.90;;;;;;6269474;22;20069;-87
2022/12/01 05:54:19;;;;;;;96.07;38.08;;;5.90;99.90;;;;;;6243440;22;20397;-87
2022/12/01 05:56:45;;;;;;;94.85;38.15;;;5.80;99.90;;;;;;6269186;22;20015;-86
2022/12/01 05:59:10;;;;;;;88.93;35.65;;;5.90;99.90;;;;;;6255897;22;20023;-87
2022/12/01 06:01:36;;;;;;;94.00;36.83;;;5.90;99.90;;;;;;6272563;22;20467;-87
2022/12/01 06:04:02;;;;;;;91.35;37.03;;;6.90;99.90;;;;;;6271539;22;20023;-87
2022/12/01 06:06:28;;;;;;;94.65;35.95;;;5.90;99.90;;;;;;6273034;22;20015;-87
2022/12/01 06:08:54;;;;;;;96.30;38.47;;;5.90;99.90;;;;;;6245492;22;20012;-86
2022/12/01 06:11:19;;;;;;;92.35;37.75;;;5.90;99.90;;;;;;6270022;22;20022;-87
2022/12/01 06:13:45;;;;;;;96.57;37.03;;;5.80;99.90;;;;;;6272292;22;20043;-87
2022/12/01 06:16:14;;;;;;;82.25;36.10;;;6.00;99.90;;;;;;6273463;22;20027;-87
2022/12/01 06:18:41;;;;;;;92.22;37.60;;;5.90;99.90;;;;;;6273895;22;20012;-87
2022/12/01 06:21:07;;;;;;;90.57;37.13;;;5.80;99.90;;;;;;6271394;22;20015;-86
2022/12/01 06:23:33;;;;;;;93.53;36.55;;;5.80;99.90;;;;;;6245745;22;20065;-87
2022/12/01 06:25:59;;;;;;;92.55;37.83;;;5.80;99.90;;;;;;6246689;22;20016;-87
2022/12/01 06:28:25;;;;;;;105.65;40.70;;;5.80;99.90;;;;;;6272606;22;20034;-86
2022/12/01 06:30:50;;;;;;;108.18;39.75;;;5.80;99.90;;;;;;6272547;22;20019;-87
2022/12/01 06:33:16;;;;;;;97.82;39.55;;;5.80;99.90;;;;;;6273178;22;20015;-87
2022/12/01 06:35:42;;;;;;;86.90;35.45;;;5.80;99.90;;;;;;6273312;22;20008;-87
2022/12/01 06:38:08;;;;;;;99.72;37.03;;;5.80;99.90;;;;;;6273346;22;20022;-86
2022/12/01 06:40:33;;;;;;;88.43;35.83;;;5.80;99.90;;;;;;6268268;22;20368;-86
2022/12/01 06:43:01;;;;;;;91.22;35.97;;;5.80;99.90;;;;;;6272862;22;20419;-87
2022/12/01 06:45:27;;;;;;;93.88;36.83;;;5.80;99.90;;;;;;6271066;22;20019;-87
2022/12/01 06:47:54;;;;;;;87.75;37.45;;;5.70;99.90;;;;;;6268930;22;20011;-88
2022/12/01 06:50:20;;;;;;;102.25;38.45;;;5.70;99.90;;;;;;6274195;22;20020;-88
2022/12/01 06:52:46;;;;;;;93.68;37.85;;;5.70;99.90;;;;;;6270580;22;20015;-88
2022/12/01 06:55:12;;;;;;;101.15;39.05;;;5.70;99.90;;;;;;6270134;22;20186;-90
2022/12/01 06:57:38;;;;;;;86.40;36.53;;;5.70;99.90;;;;;;6275842;22;20039;-87
2022/12/01 07:00:04;;;;;;;94.97;37.88;;;5.70;99.90;;;;;;6271031;22;20023;-87
2022/12/01 07:02:30;;;;;;;102.28;38.75;;;5.70;99.90;;;;;;6272954;22;20101;-87
2022/12/01 07:04:56;;;;;;;100.30;38.42;;;5.70;99.90;;;;;;6247526;22;20020;-88
2022/12/01 07:07:21;;;;;;;83.93;32.63;;;5.70;99.90;;;;;;6271786;22;20035;-87
2022/12/01 07:09:47;;;;;;;96.40;37.55;;;5.70;99.90;;;;;;6271376;22;20042;-88
2022/12/01 07:12:13;;;;;;;84.97;34.10;;;5.70;99.90;;;;;;6275126;22;20377;-89
2022/12/01 07:14:41;;;;;;;92.95;35.97;;;5.70;99.90;;;;;;6269572;22;20086;-88
2022/12/01 07:17:08;;;;;;;95.55;39.38;;;5.70;99.90;;;;;;6269605;22;20011;-88
2022/12/01 07:19:34;;;;;;;91.32;36.08;;;5.70;99.90;;;;;;6270103;22;20091;-89
2022/12/01 07:21:59;;;;;;;98.00;37.60;;;5.70;99.90;;;;;;6276358;22;20325;-89
2022/12/01 07:24:25;;;;;;;94.60;37.15;;;5.70;99.90;;;;;;6274390;22;20007;-90
2022/12/01 07:26:50;;;;;;;86.30;35.20;;;5.80;99.90;;;;;;6274185;22;20015;-90
2022/12/01 07:29:16;;;;;;;96.13;38.08;;;5.80;99.90;;;;;;6301611;22;20034;-90
2022/12/01 07:31:42;;;;;;;95.00;37.03;;;5.70;99.90;;;;;;6302748;22;20015;-90
2022/12/01 07:34:11;;;;;;;92.55;36.67;;;5.70;99.90;;;;;;6274827;22;20018;-89
2022/12/01 07:36:36;;;;;;;83.53;33.83;;;5.70;99.90;;;;;;6301381;22;20019;-90
2022/12/01 07:39:06;;;;;;;84.03;34.42;;;5.80;99.90;;;;;;6301096;22;20322;-89
2022/12/01 07:41:32;;;;;;;88.07;35.55;;;5.70;99.90;;;;;;6273396;22;20042;-87
2022/12/01 07:43:58;;;;;;;85.35;35.80;;;5.70;99.90;;;;;;6300732;22;20072;-88
2022/12/01 07:46:25;;;;;;;93.25;37.75;;;5.70;99.90;;;;;;6300904;22;20355;-88
2022/12/01 07:48:52;;;;;;;80.40;35.25;;;5.70;99.90;;;;;;6270009;22;20018;-88
2022/12/01 07:51:18;;;;;;;91.55;36.42;;;5.60;99.90;;;;;;6297975;22;20011;-86
2022/12/01 07:53:46;;;;;;;90.50;36.22;;;5.60;99.90;;;;;;6298849;22;20446;-87
2022/12/01 07:56:12;;;;;;;91.65;37.45;;;5.50;99.90;;;;;;6301561;22;20019;-86
2022/12/01 07:58:38;;;;;;;85.45;35.70;;;5.50;99.90;;;;;;6302201;22;20007;-86
2022/12/01 08:01:11;;;;;;;81.55;34.05;;;5.40;99.90;;;;;;6302859;22;20338;-86
2022/12/01 08:03:37;;;;;;;75.75;32.92;;;5.30;99.90;;;;;;6303043;22;20023;-86
2022/12/01 08:06:04;;;;;;;86.78;34.10;;;5.30;99.90;;;;;;6302446;22;20470;-86
2022/12/01 08:08:31;;;;;;;84.22;34.53;;;5.20;99.90;;;;;;6301660;22;20026;-86
2022/12/01 08:11:05;;;;;;;89.93;37.20;;;5.20;99.90;;;;;;6302771;22;20015;-86
2022/12/01 08:13:31;;;;;;;;;;;5.20;99.90;;;;;;6301955;22;20454;-86
2022/12/01 08:15:57;;;;;;;85.32;35.15;;;5.20;99.90;;;;;;6302505;22;19915;-85
2022/12/01 08:18:23;;;;;;;82.80;35.03;;;5.20;99.90;;;;;;6302612;22;20031;-86
2022/12/01 08:20:49;;;;;;;86.00;35.20;;;5.20;99.90;;;;;;6300697;22;20492;-86
2022/12/01 08:23:15;;;;;;;90.60;35.88;;;5.20;99.90;;;;;;6300173;22;20139;-86
2022/12/01 08:25:41;;;;;;;81.50;33.70;;;5.30;99.90;;;;;;6301206;22;20470;-86
2022/12/01 08:28:06;;;;;;;80.78;33.22;;;5.20;99.90;;;;;;6300866;22;20034;-86
2022/12/01 08:30:32;;;;;;;82.68;33.90;;;5.30;99.90;;;;;;6300964;22;20060;-86
2022/12/01 08:32:57;;;;;;;86.63;36.38;;;5.30;99.90;;;;;;6301163;22;20050;-86
2022/12/01 08:35:24;;;;;;;89.47;35.13;;;5.30;99.90;;;;;;6299816;22;20438;-87
2022/12/01 08:37:53;;;;;;;87.10;36.33;;;5.40;99.90;;;;;;6300077;22;20072;-86
2022/12/01 08:40:19;;;;;;;80.18;34.58;;;5.40;99.90;;;;;;6299814;22;20456;-86
2022/12/01 08:42:45;;;;;;;87.78;35.95;;;5.40;99.90;;;;;;6300611;22;20007;-86
2022/12/01 08:45:10;;;;;;;76.47;32.47;;;5.40;99.90;;;;;;6300271;22;20334;-86
2022/12/01 08:47:36;;;;;;;78.95;34.80;;;5.50;99.90;;;;;;6302074;22;20043;-87
2022/12/01 08:50:03;;;;;;;84.53;34.40;;;5.50;99.90;;;;;;6301611;22;20023;-86
2022/12/01 08:52:33;;;;;;;88.80;36.53;;;5.60;99.90;;;;;;6302026;22;20035;-87
2022/12/01 08:54:59;;;;;;;85.90;36.72;;;5.60;99.90;;;;;;6301983;22;20015;-87
2022/12/01 08:57:27;;;;;;;89.35;36.63;;;5.60;99.90;;;;;;6301494;22;20007;-87
2022/12/01 08:59:53;;;;;;;80.28;34.75;;;5.50;99.90;;;;;;6301600;22;20007;-87
2022/12/01 09:02:22;;;;;;;85.45;36.13;;;5.50;99.90;;;;;;6299795;22;20050;-87
2022/12/01 09:04:50;;;;;;;90.40;35.67;;;5.10;99.90;;;;;;6300234;22;20170;-87
2022/12/01 09:07:17;;;;;;;96.13;36.53;;;5.60;99.90;;;;;;6302211;22;20011;-87
2022/12/01 09:09:44;;;;;;;84.43;34.40;;;5.60;99.90;;;;;;6302555;22;20007;-86
2022/12/01 09:12:10;;;;;;;82.90;33.92;;;5.60;99.90;;;;;;6302377;22;20011;-87
2022/12/01 09:14:38;;;;;;;81.05;34.90;;;5.50;99.90;;;;;;6302325;22;20434;-87
2022/12/01 09:17:04;;;;;;;73.57;31.65;;;5.50;99.90;;;;;;6302394;22;20004;-87
2022/12/01 09:19:30;;;;;;;75.78;34.33;;;5.50;99.90;;;;;;6301543;22;20460;-87
2022/12/01 09:21:56;;;;;;;77.15;34.10;;;5.40;99.90;;;;;;6301653;22;20094;-87
2022/12/01 09:24:22;;;;;;;80.05;35.83;;;5.40;99.90;;;;;;6302284;22;20019;-87
2022/12/01 09:26:47;;;;;;;82.30;34.88;;;5.30;99.90;;;;;;6302167;22;20007;-87
2022/12/01 09:29:14;;;;;;;77.85;32.97;;;5.30;99.90;;;;;;6302479;22;20034;-88
2022/12/01 09:31:41;;;;;;;78.28;32.83;;;5.20;99.90;;;;;;6302233;22;20003;-87
2022/12/01 09:34:13;;;;;;;77.90;34.03;;;5.20;99.90;;;;;;6301725;22;20015;-87
2022/12/01 09:36:39;;;;;;;76.28;32.65;;;5.20;99.90;;;;;;6302369;22;20007;-87
2022/12/01 09:39:07;;;;;;;82.65;33.33;;;5.20;99.90;;;;;;6302473;22;20087;-87
2022/12/01 09:41:38;;;;;;;84.47;33.70;;;5.20;99.90;;;;;;6301962;22;20012;-87
2022/12/01 09:44:13;;;;;;;84.15;35.00;;;5.20;99.90;;;;;;6302556;22;20073;-87
2022/12/01 09:46:46;;;;;;;83.00;33.10;;;5.20;99.90;;;;;;6302298;22;20016;-87
2022/12/01 09:49:18;;;;;;;79.72;33.72;;;5.20;99.90;;;;;;6274154;22;20042;-87
2022/12/01 09:51:43;;;;;;;87.95;34.53;;;5.20;99.90;;;;;;6302637;22;20014;-87
2022/12/01 09:54:12;;;;;;;77.43;33.45;;;5.20;99.90;;;;;;6302327;22;20007;-87
2022/12/01 09:56:44;;;;;;;77.22;34.95;;;5.20;99.90;;;;;;6302272;22;20018;-87
2022/12/01 09:59:18;;;;;;;80.80;32.92;;;5.30;99.90;;;;;;6301883;22;20046;-87
2022/12/01 10:01:45;;;;;;;;;;;5.30;99.90;;;;;;6302761;22;20070;-87
2022/12/01 10:04:20;;;;;;;79.90;35.03;;;5.40;99.90;;;;;;6301155;22;19914;-87
2022/12/01 10:07:03;;;;;;;77.97;32.08;;;5.50;99.90;;;;;;6302577;22;20017;-87
2022/12/01 10:09:37;;;;;;;78.72;31.70;;;5.60;99.90;;;;;;6274447;22;20316;-87
2022/12/01 10:12:26;;;;;;;79.32;34.30;;;5.70;99.90;;;;;;6302128;22;20019;-87
2022/12/01 10:14:55;;;;;;;76.20;32.75;;;5.80;99.90;;;;;;6302253;22;20015;-87
2022/12/01 10:17:54;;;;;;;76.50;30.63;;;5.80;99.90;;;;;;6301517;22;20011;-87
2022/12/01 10:20:53;;;;;;;66.18;31.33;;;5.90;99.90;;;;;;6302530;22;20012;-86
2022/12/01 10:23:39;;;;;;;77.97;31.65;;;5.90;99.90;;;;;;6281054;22;20448;-87
2022/12/01 10:26:31;;;;;;;69.15;31.35;;;6.00;99.90;;;;;;6302283;22;20018;-86
2022/12/01 10:29:17;;;;;;;76.28;30.67;;;6.00;99.90;;;;;;6301577;22;20525;-87
2022/12/01 10:32:08;;;;;;;66.22;29.83;;;6.00;99.90;;;;;;6301265;22;20011;-87
2022/12/01 10:34:37;;;;;;;68.50;30.17;;;6.00;99.90;;;;;;6301669;22;20011;-86
2022/12/01 10:37:03;;;;;;;72.30;30.52;;;6.00;99.90;;;;;;6303177;22;20442;-87
2022/12/01 10:39:42;;;;;;;70.68;30.52;;;6.00;99.90;;;;;;6303704;22;20083;-87
2022/12/01 10:42:18;;;;;;;69.70;30.38;;;5.90;99.90;;;;;;6303911;22;20035;-87
2022/12/01 10:44:44;;;;;;;62.20;29.30;;;5.90;99.90;;;;;;6303679;22;20504;-87
2022/12/01 10:47:19;;;;;;;76.07;31.02;;;5.90;99.90;;;;;;6275802;22;20422;-87
2022/12/01 10:49:45;;;;;;;62.38;29.33;;;5.90;99.90;;;;;;6303590;22;20026;-86
2022/12/01 10:52:29;;;;;;;66.95;29.02;;;5.90;99.90;;;;;;6300794;22;20091;-88
2022/12/01 10:54:55;;;;;;;67.03;29.58;;;5.90;99.90;;;;;;6303389;22;20019;-89
2022/12/01 10:57:22;;;;;;;67.15;29.30;;;6.00;99.90;;;;;;6302989;22;20015;-88
2022/12/01 11:00:00;;;;;;;67.43;32.45;;;5.90;99.90;;;;;;6303706;22;20007;-88
2022/12/01 11:02:29;;;;;;;64.57;29.27;;;5.90;99.90;;;;;;6300779;22;20098;-86
2022/12/01 11:04:58;;;;;;;68.60;29.50;;;5.90;99.90;;;;;;6303238;22;20015;-86
2022/12/01 11:07:32;;;;;;;64.32;28.45;;;5.90;99.90;;;;;;6301772;22;20039;-85
2022/12/01 11:10:11;;;;;;;69.32;30.20;;;5.90;99.90;;;;;;6303565;22;20028;-86
2022/12/01 11:12:37;;;;;;;63.17;28.30;;;5.90;99.90;;;;;;6275350;22;20042;-86
2022/12/01 11:15:04;;;;;;;68.65;30.13;;;5.90;99.90;;;;;;6275052;22;20018;-86
2022/12/01 11:17:42;;;;;;;64.13;29.98;;;5.90;99.90;;;;;;6303033;22;20013;-87
2022/12/01 11:20:35;;;;;;;64.22;30.05;;;5.90;99.90;;;;;;6303294;22;20022;-86
2022/12/01 11:23:25;;;;;;;65.00;29.38;;;5.90;99.90;;;;;;6301930;22;20030;-87
2022/12/01 11:26:14;;;;;;;59.45;27.38;;;5.90;99.90;;;;;;6301065;22;20450;-87
2022/12/01 11:29:04;;;;;;;64.20;27.92;;;6.00;99.90;;;;;;6302903;22;20076;-87
2022/12/01 11:31:48;;;;;;;58.47;26.30;;;6.10;99.90;;;;;;6302368;22;20007;-87
2022/12/01 11:34:27;;;;;;;55.33;26.00;;;6.10;99.90;;;;;;6302942;22;20007;-86
2022/12/01 11:36:56;;;;;;;62.28;26.88;;;6.20;99.90;;;;;;6303038;22;20014;-86
2022/12/01 11:39:35;;;;;;;56.85;25.20;;;6.30;99.90;;;;;;6302349;22;20446;-86
2022/12/01 11:42:15;;;;;;;57.58;26.02;;;6.30;99.90;;;;;;6302448;22;20074;-87
2022/12/01 11:44:59;;;;;;;63.75;27.85;;;6.40;99.90;;;;;;6302315;22;20065;-87
2022/12/01 11:47:26;;;;;;;56.20;26.92;;;6.40;99.90;;;;;;6301846;22;20018;-86
2022/12/01 11:49:56;;;;;;;57.90;25.70;;;6.50;99.90;;;;;;6301924;22;20011;-86
2022/12/01 11:52:29;;;;;;;53.90;25.73;;;6.50;99.90;;;;;;6301678;22;20023;-86
2022/12/01 11:55:06;;;;;;;55.15;26.67;;;6.60;99.90;;;;;;6301768;22;20093;-86
2022/12/01 11:57:32;;;;;;;55.45;25.48;;;6.60;99.90;;;;;;6302003;22;20021;-86
2022/12/01 11:59:58;;;;;;;65.07;27.02;;;6.60;99.90;;;;;;6301696;22;20329;-87
2022/12/01 12:03:04;;;;;;;56.08;25.27;;;6.70;99.90;;;;;;6274147;22;20385;-85
2022/12/01 12:06:02;;;;;;;52.75;25.20;;;6.70;99.90;;;;;;6280543;22;20015;-85
2022/12/01 12:08:49;;;;;;;48.97;23.13;;;6.70;99.90;;;;;;6273348;22;20011;-87
2022/12/01 12:11:22;;;;;;;54.42;26.40;;;6.70;99.90;;;;;;6300841;22;20042;-86
2022/12/01 12:14:25;;;;;;;50.92;24.75;;;6.80;99.90;;;;;;6301834;22;20018;-87
2022/12/01 12:17:15;;;;;;;54.42;27.35;;;6.80;99.90;;;;;;6300202;22;20015;-87
2022/12/01 12:19:47;;;;;;;52.75;24.33;;;6.80;99.90;;;;;;6273861;22;20091;-87
2022/12/01 12:22:25;;;;;;;50.53;24.50;;;6.80;99.90;;;;;;6302139;22;20033;-87
2022/12/01 12:25:30;;;;;;;51.30;23.90;;;6.80;99.90;;;;;;6303249;22;20015;-87
2022/12/01 12:28:21;;;;;;;45.55;23.83;;;6.90;99.90;;;;;;6274871;22;20088;-85
2022/12/01 12:31:26;;;;;;;48.00;23.40;;;6.80;99.90;;;;;;6302460;22;20015;-85
2022/12/01 12:34:24;;;;;;;50.58;24.25;;;6.80;99.90;;;;;;6299847;22;20034;-86
2022/12/01 12:37:37;;;;;;;52.15;24.30;;;6.80;99.90;;;;;;6250516;22;20011;-86
2022/12/01 12:40:25;;;;;;;49.03;24.42;;;6.80;99.90;;;;;;6301968;22;20057;-86
2022/12/01 12:42:57;;;;;;;48.13;24.73;;;6.80;99.90;;;;;;6301699;22;20026;-85
2022/12/01 12:45:52;;;;;;;49.47;24.85;;;6.80;99.90;;;;;;6302651;22;20019;-85
2022/12/01 12:48:33;;;;;;;44.45;23.48;;;6.80;99.90;;;;;;6302867;22;20082;-87
2022/12/01 12:51:12;;;;;;;44.50;22.85;;;6.90;99.90;;;;;;6302209;22;20457;-87
2022/12/01 12:54:22;;;;;;;48.10;23.98;;;6.90;99.90;;;;;;6274525;22;20027;-86
2022/12/01 12:56:52;;;;;;;46.25;22.98;;;6.90;99.90;;;;;;6301988;22;20015;-86
2022/12/01 12:59:24;;;;;;;49.45;24.13;;;6.90;99.90;;;;;;6249141;22;20022;-86
2022/12/01 13:02:00;;;;;;;45.80;22.63;;;6.90;99.90;;;;;;6302516;22;20022;-86
2022/12/01 13:04:36;;;;;;;49.83;23.83;;;6.90;99.90;;;;;;6302565;22;20011;-86
2022/12/01 13:07:14;;;;;;;42.95;24.42;;;6.90;99.90;;;;;;6302272;22;20022;-86
2022/12/01 13:09:45;;;;;;;48.20;24.38;;;6.90;99.90;;;;;;6302286;22;20096;-86